createdAt,value
2022-10-18T00:00:43.550Z,0
2022-10-18T00:01:44.245Z,0
2022-10-18T00:02:45.805Z,0
2022-10-18T00:03:45.757Z,0
2022-10-18T00:04:46.654Z,0
2022-10-18T00:05:47.863Z,0
2022-10-18T00:06:54.325Z,0
2022-10-18T00:07:49.653Z,0
2022-10-18T00:08:50.317Z,0
2022-10-18T00:09:51.523Z,0
2022-10-18T00:10:52.219Z,0
2022-10-18T00:11:53.140Z,0
2022-10-18T00:12:54.251Z,0
2022-10-18T00:13:54.164Z,0
2022-10-18T00:14:55.371Z,0
2022-10-18T00:15:55.275Z,0
2022-10-18T00:16:56.486Z,0
2022-10-18T00:17:56.712Z,0
2022-10-18T00:18:56.628Z,0
2022-10-18T00:19:57.642Z,0
2022-10-18T00:20:58.246Z,0
2022-10-18T00:21:58.262Z,0
2022-10-18T00:22:58.173Z,0
2022-10-18T00:23:59.111Z,0
2022-10-18T00:24:59.605Z,0
2022-10-18T00:25:59.836Z,0
2022-10-18T00:27:00.750Z,0
2022-10-18T00:28:01.667Z,0
2022-10-18T00:29:02.542Z,0
2022-10-18T00:30:02.193Z,0
2022-10-18T00:31:02.724Z,0
2022-10-18T00:32:03.650Z,0
2022-10-18T00:33:03.858Z,0
2022-10-18T00:34:04.199Z,0
2022-10-18T00:35:05.119Z,0
2022-10-18T00:36:05.738Z,0
2022-10-18T00:37:06.391Z,0
2022-10-18T00:38:06.701Z,0
2022-10-18T00:39:07.975Z,0
2022-10-18T00:40:09.073Z,0
2022-10-18T00:41:08.389Z,0
2022-10-18T00:42:09.608Z,0
2022-10-18T00:43:09.501Z,0
2022-10-18T00:44:10.713Z,0
2022-10-18T00:45:11.653Z,0
2022-10-18T00:46:11.544Z,0
2022-10-18T00:47:12.461Z,0
2022-10-18T00:48:13.386Z,0
2022-10-18T00:49:14.286Z,0
2022-10-18T00:50:15.477Z,0
2022-10-18T00:51:16.196Z,0
2022-10-18T00:52:16.507Z,0
2022-10-18T00:53:17.724Z,0
2022-10-18T00:54:17.151Z,0
2022-10-18T00:55:18.653Z,0
2022-10-18T00:56:18.267Z,0
2022-10-18T00:57:18.589Z,0
2022-10-18T00:58:19.508Z,0
2022-10-18T00:59:20.708Z,0
2022-10-18T01:00:21.354Z,0
2022-10-18T01:01:23.273Z,0
2022-10-18T01:02:23.490Z,0
2022-10-18T01:03:23.696Z,0
2022-10-18T01:04:24.911Z,0
2022-10-18T01:05:24.276Z,0
2022-10-18T01:06:24.912Z,0
2022-10-18T01:07:25.509Z,0
2022-10-18T01:08:26.419Z,0
2022-10-18T01:09:26.984Z,0
2022-10-18T01:10:27.192Z,0
2022-10-18T01:11:28.189Z,0
2022-10-18T01:12:28.383Z,0
2022-10-18T01:13:36.494Z,0
2022-10-18T01:14:29.109Z,0
2022-10-18T01:15:29.428Z,0
2022-10-18T01:16:31.340Z,0
2022-10-18T01:17:31.976Z,0
2022-10-18T01:18:32.790Z,0
2022-10-18T01:19:34.011Z,0
2022-10-18T01:20:34.317Z,0
2022-10-18T01:21:34.634Z,0
2022-10-18T01:22:35.579Z,0
2022-10-18T01:23:35.482Z,0
2022-10-18T01:24:36.719Z,0
2022-10-18T01:25:36.947Z,0
2022-10-18T01:26:36.837Z,0
2022-10-18T01:27:38.114Z,0
2022-10-18T01:28:38.285Z,0
2022-10-18T01:29:38.084Z,0
2022-10-18T01:30:39.299Z,0
2022-10-18T01:31:39.990Z,0
2022-10-18T01:32:40.883Z,0
2022-10-18T01:33:41.537Z,0
2022-10-18T01:34:42.731Z,0
2022-10-18T01:35:42.339Z,0
2022-10-18T01:36:43.537Z,0
2022-10-18T01:37:44.921Z,0
2022-10-18T01:38:44.109Z,0
2022-10-18T01:39:44.322Z,0
2022-10-18T01:40:44.250Z,0
2022-10-18T01:41:44.231Z,0
2022-10-18T01:42:45.148Z,0
2022-10-18T01:43:46.362Z,0
2022-10-18T01:44:46.276Z,0
2022-10-18T01:45:46.172Z,0
2022-10-18T01:46:47.368Z,0
2022-10-18T01:47:48.488Z,0
2022-10-18T01:48:49.002Z,0
2022-10-18T01:49:48.901Z,0
2022-10-18T01:50:50.117Z,0
2022-10-18T01:51:49.824Z,0
2022-10-18T01:52:51.244Z,0
2022-10-18T01:53:51.169Z,0
2022-10-18T01:54:51.119Z,0
2022-10-18T01:55:52.837Z,0
2022-10-18T01:56:53.049Z,0
2022-10-18T01:57:52.663Z,0
2022-10-18T01:58:53.859Z,0
2022-10-18T01:59:53.474Z,0
2022-10-18T02:00:54.089Z,0
2022-10-18T02:01:55.093Z,0
2022-10-18T02:02:55.989Z,0
2022-10-18T02:03:56.918Z,0
2022-10-18T02:04:57.834Z,0
2022-10-18T02:05:58.454Z,0
2022-10-18T02:06:59.479Z,0
2022-10-18T02:08:32.740Z,0
2022-10-18T02:09:00.638Z,0
2022-10-18T02:10:01.031Z,0
2022-10-18T02:11:02.244Z,0
2022-10-18T02:12:02.961Z,0
2022-10-18T02:13:03.878Z,0
2022-10-18T02:14:04.217Z,0
2022-10-18T02:15:05.441Z,0
2022-10-18T02:16:05.640Z,0
2022-10-18T02:17:05.844Z,0
2022-10-18T02:18:06.039Z,0
2022-10-18T02:19:05.968Z,0
2022-10-18T02:20:06.303Z,0
2022-10-18T02:21:07.624Z,0
2022-10-18T02:22:07.948Z,0
2022-10-18T02:23:08.138Z,0
2022-10-18T02:24:08.053Z,0
2022-10-18T02:25:09.274Z,0
2022-10-18T02:26:09.778Z,0
2022-10-18T02:27:09.992Z,0
2022-10-18T02:28:10.306Z,0
2022-10-18T02:29:10.544Z,0
2022-10-18T02:30:10.758Z,0
2022-10-18T02:31:10.947Z,0
2022-10-18T02:32:11.386Z,0
2022-10-18T02:33:12.003Z,0
2022-10-18T02:34:12.927Z,0
2022-10-18T02:35:13.538Z,0
2022-10-18T02:36:14.736Z,0
2022-10-18T02:37:15.741Z,0
2022-10-18T02:38:16.252Z,0
2022-10-18T02:39:15.591Z,0
2022-10-18T02:40:16.214Z,0
2022-10-18T02:41:17.715Z,0
2022-10-18T02:42:18.083Z,0
2022-10-18T02:43:18.747Z,0
2022-10-18T02:44:19.941Z,0
2022-10-18T02:45:20.135Z,0
2022-10-18T02:46:20.099Z,0
2022-10-18T02:47:21.039Z,0
2022-10-18T02:48:22.248Z,0
2022-10-18T02:49:22.158Z,0
2022-10-18T02:50:22.493Z,0
2022-10-18T02:51:23.119Z,0
2022-10-18T02:52:24.702Z,0
2022-10-18T02:53:24.294Z,0
2022-10-18T02:54:25.210Z,0
2022-10-18T02:56:27.214Z,0
2022-10-18T02:57:27.559Z,0
2022-10-18T02:58:27.910Z,0
2022-10-18T02:59:28.553Z,0
2022-10-18T03:00:29.464Z,0
2022-10-18T03:01:30.045Z,0
2022-10-18T03:02:30.062Z,0
2022-10-18T03:03:30.703Z,0
2022-10-18T03:04:31.814Z,0
2022-10-18T03:05:32.009Z,0
2022-10-18T03:06:32.198Z,0
2022-10-18T03:07:33.759Z,0
2022-10-18T03:08:33.835Z,0
2022-10-18T03:09:34.924Z,0
2022-10-18T03:10:36.141Z,0
2022-10-18T03:11:36.368Z,0
2022-10-18T03:12:37.075Z,0
2022-10-18T03:13:37.947Z,0
2022-10-18T03:14:37.570Z,0
2022-10-18T03:15:39.056Z,0
2022-10-18T03:16:38.392Z,0
2022-10-18T03:17:39.893Z,0
2022-10-18T03:18:40.101Z,0
2022-10-18T03:19:40.030Z,0
2022-10-18T03:20:40.950Z,0
2022-10-18T03:21:41.245Z,0
2022-10-18T03:22:41.647Z,0
2022-10-18T03:23:41.300Z,0
2022-10-18T03:24:41.918Z,0
2022-10-18T03:25:44.284Z,0
2022-10-18T03:26:43.880Z,0
2022-10-18T03:27:44.852Z,0
2022-10-18T03:28:44.005Z,0
2022-10-18T03:29:44.503Z,0
2022-10-18T03:30:44.115Z,0
2022-10-18T03:31:45.623Z,0
2022-10-18T03:32:46.456Z,0
2022-10-18T03:33:46.366Z,0
2022-10-18T03:34:47.332Z,0
2022-10-18T03:35:47.945Z,0
2022-10-18T03:36:48.562Z,0
2022-10-18T03:37:49.187Z,0
2022-10-18T03:38:49.782Z,0
2022-10-18T03:39:50.697Z,0
2022-10-18T03:40:51.682Z,0
2022-10-18T03:41:51.926Z,0
2022-10-18T03:42:52.360Z,0
2022-10-18T03:43:53.573Z,0
2022-10-18T03:44:54.209Z,0
2022-10-18T03:45:55.399Z,0
2022-10-18T03:46:55.612Z,0
2022-10-18T03:47:56.236Z,0
2022-10-18T03:48:57.462Z,0
2022-10-18T03:50:02.111Z,0
2022-10-18T03:50:57.707Z,0
2022-10-18T03:51:58.313Z,0
2022-10-18T03:52:59.647Z,0
2022-10-18T03:53:59.982Z,0
2022-10-18T03:55:01.178Z,0
2022-10-18T03:56:01.100Z,0
2022-10-18T03:57:02.298Z,0
2022-10-18T03:58:01.978Z,0
2022-10-18T03:59:02.924Z,0
2022-10-18T04:00:03.419Z,0
2022-10-18T04:01:03.337Z,0
2022-10-18T04:02:04.392Z,0
2022-10-18T04:03:09.668Z,0
2022-10-18T04:04:04.989Z,0
2022-10-18T04:05:05.911Z,0
2022-10-18T04:06:06.526Z,0
2022-10-18T04:07:07.124Z,0
2022-10-18T04:08:08.052Z,0
2022-10-18T04:09:12.015Z,0
2022-10-18T04:10:09.216Z,0
2022-10-18T04:11:09.739Z,0
2022-10-18T04:12:09.943Z,0
2022-10-18T04:13:10.630Z,0
2022-10-18T04:14:11.843Z,0
2022-10-18T04:15:11.808Z,0
2022-10-18T04:16:13.293Z,0
2022-10-18T04:17:13.510Z,0
2022-10-18T04:18:14.126Z,0
2022-10-18T04:19:15.097Z,0
2022-10-18T04:20:15.749Z,0
2022-10-18T04:21:16.655Z,0
2022-10-18T04:22:17.371Z,0
2022-10-18T04:23:18.383Z,0
2022-10-18T04:24:19.291Z,0
2022-10-18T04:25:20.503Z,0
2022-10-18T04:26:20.465Z,0
2022-10-18T04:27:21.051Z,0
2022-10-18T04:28:20.966Z,0
2022-10-18T04:29:22.574Z,0
2022-10-18T04:30:22.514Z,0
2022-10-18T04:31:23.002Z,0
2022-10-18T04:32:23.491Z,0
2022-10-18T04:33:24.232Z,0
2022-10-18T04:34:25.153Z,0
2022-10-18T04:35:26.127Z,0
2022-10-18T04:36:26.019Z,0
2022-10-18T04:37:27.236Z,0
2022-10-18T04:38:28.167Z,0
2022-10-18T04:39:28.384Z,0
2022-10-18T04:40:28.877Z,0
2022-10-18T04:41:28.813Z,0
2022-10-18T04:42:29.092Z,0
2022-10-18T04:43:28.817Z,0
2022-10-18T04:44:29.755Z,0
2022-10-18T04:45:30.095Z,0
2022-10-18T04:46:31.020Z,0
2022-10-18T04:47:31.644Z,0
2022-10-18T04:48:32.564Z,0
2022-10-18T04:49:34.057Z,0
2022-10-18T04:50:34.569Z,0
2022-10-18T04:51:34.480Z,0
2022-10-18T04:52:35.679Z,0
2022-10-18T04:53:36.391Z,0
2022-10-18T04:54:40.476Z,0
2022-10-18T04:55:37.816Z,0
2022-10-18T04:56:38.449Z,0
2022-10-18T04:57:40.169Z,0
2022-10-18T04:58:40.364Z,0
2022-10-18T04:59:41.283Z,0
2022-10-18T05:00:45.323Z,0
2022-10-18T05:01:43.302Z,0
2022-10-18T05:02:43.723Z,0
2022-10-18T05:03:43.436Z,0
2022-10-18T05:04:44.063Z,0
2022-10-18T05:06:14.135Z,0
2022-10-18T05:06:45.776Z,0
2022-10-18T05:07:46.707Z,0
2022-10-18T05:08:47.933Z,0
2022-10-18T05:09:47.555Z,0
2022-10-18T05:10:48.745Z,0
2022-10-18T05:11:48.957Z,0
2022-10-18T05:12:49.980Z,0
2022-10-18T05:13:53.981Z,0
2022-10-18T05:14:49.877Z,0
2022-10-18T05:15:51.100Z,0
2022-10-18T05:16:51.020Z,0
2022-10-18T05:17:51.337Z,0
2022-10-18T05:18:51.232Z,0
2022-10-18T05:19:52.157Z,0
2022-10-18T05:20:53.406Z,0
2022-10-18T05:21:53.024Z,0
2022-10-18T05:22:54.018Z,0
2022-10-18T05:23:53.743Z,0
2022-10-18T05:24:54.653Z,0
2022-10-18T05:25:54.540Z,0
2022-10-18T05:26:55.459Z,0
2022-10-18T05:27:56.693Z,0
2022-10-18T05:28:57.938Z,0
2022-10-18T05:29:58.868Z,0
2022-10-18T05:30:58.829Z,0
2022-10-18T05:31:58.747Z,0
2022-10-18T05:32:59.662Z,0
2022-10-18T05:34:00.962Z,0
2022-10-18T05:35:01.234Z,0
2022-10-18T05:36:01.156Z,0
2022-10-18T05:37:01.745Z,0
2022-10-18T05:38:02.642Z,0
2022-10-18T05:39:07.733Z,0
2022-10-18T05:40:04.066Z,0
2022-10-18T05:41:04.981Z,0
2022-10-18T05:42:05.922Z,0
2022-10-18T05:43:06.143Z,0
2022-10-18T05:44:06.458Z,0
2022-10-18T05:45:07.101Z,0
2022-10-18T05:46:10.586Z,0
2022-10-18T05:47:07.863Z,0
2022-10-18T05:48:09.062Z,0
2022-10-18T05:49:08.979Z,0
2022-10-18T05:50:09.904Z,0
2022-10-18T05:51:10.404Z,0
2022-10-18T05:52:10.300Z,0
2022-10-18T05:53:43.729Z,0
2022-10-18T05:54:31.158Z,0
2022-10-18T05:55:31.773Z,0
2022-10-18T05:56:32.791Z,0
2022-10-18T05:57:33.796Z,5.63
2022-10-18T05:58:34.483Z,5.63
2022-10-18T05:59:34.975Z,5.63
2022-10-18T06:00:34.713Z,5.63
2022-10-18T06:01:35.635Z,5.63
2022-10-18T06:02:36.457Z,5.63
2022-10-18T06:03:36.495Z,5.63
2022-10-18T06:04:36.205Z,5.63
2022-10-18T06:05:36.513Z,5.63
2022-10-18T06:06:37.735Z,5.63
2022-10-18T06:07:37.996Z,5.63
2022-10-18T06:08:38.628Z,5.63
2022-10-18T06:09:39.625Z,5.63
2022-10-18T06:10:40.538Z,5.63
2022-10-18T06:11:41.207Z,5.63
2022-10-18T06:12:42.445Z,5.63
2022-10-18T06:13:44.916Z,5.63
2022-10-18T06:14:42.607Z,5.63
2022-10-18T06:15:43.800Z,11.25
2022-10-18T06:16:48.080Z,11.25
2022-10-18T06:17:50.017Z,11.25
2022-10-18T06:18:45.954Z,16.88
2022-10-18T06:19:46.349Z,16.88
2022-10-18T06:20:47.544Z,22.5
2022-10-18T06:21:47.481Z,22.5
2022-10-18T06:22:48.704Z,22.5
2022-10-18T06:23:48.141Z,28.13
2022-10-18T06:24:49.676Z,28.13
2022-10-18T06:25:49.666Z,33.75
2022-10-18T06:26:49.575Z,33.75
2022-10-18T06:27:51.162Z,33.75
2022-10-18T06:28:52.106Z,33.75
2022-10-18T06:29:51.461Z,33.75
2022-10-18T06:30:52.361Z,33.75
2022-10-18T06:31:53.297Z,33.75
2022-10-18T06:32:53.218Z,39.38
2022-10-18T06:33:54.444Z,39.38
2022-10-18T06:34:55.199Z,39.38
2022-10-18T06:35:55.439Z,45
2022-10-18T06:37:00.327Z,45
2022-10-18T06:37:56.698Z,50.63
2022-10-18T06:38:56.593Z,50.63
2022-10-18T06:39:58.262Z,56.25
2022-10-18T06:40:57.896Z,56.25
2022-10-18T06:41:58.530Z,56.25
2022-10-18T06:43:31.138Z,56.25
2022-10-18T06:44:00.652Z,56.25
2022-10-18T06:45:00.736Z,61.88
2022-10-18T06:46:00.939Z,61.88
2022-10-18T06:47:00.862Z,61.88
2022-10-18T06:48:01.797Z,61.88
2022-10-18T06:49:02.421Z,61.88
2022-10-18T06:50:03.323Z,61.88
2022-10-18T06:51:04.546Z,61.88
2022-10-18T06:52:05.631Z,61.88
2022-10-18T06:53:05.877Z,56.25
2022-10-18T06:54:30.008Z,50.63
2022-10-18T06:55:20.524Z,50.63
2022-10-18T06:56:18.432Z,56.25
2022-10-18T06:57:19.351Z,50.63
2022-10-18T06:58:20.285Z,50.63
2022-10-18T06:59:20.545Z,56.25
2022-10-18T07:00:20.785Z,56.25
2022-10-18T07:01:21.380Z,50.63
2022-10-18T07:02:21.413Z,56.25
2022-10-18T07:03:22.632Z,73.13
2022-10-18T07:04:22.707Z,84.38
2022-10-18T07:05:23.496Z,61.88
2022-10-18T07:06:24.471Z,45
2022-10-18T07:07:25.417Z,45
2022-10-18T07:08:26.626Z,50.63
2022-10-18T07:09:26.526Z,50.63
2022-10-18T07:10:29.942Z,50.63
2022-10-18T07:11:28.188Z,50.63
2022-10-18T07:12:28.103Z,50.63
2022-10-18T07:13:48.429Z,50.63
2022-10-18T07:14:40.129Z,50.63
2022-10-18T07:15:31.001Z,50.63
2022-10-18T07:16:34.918Z,61.88
2022-10-18T07:17:32.054Z,61.88
2022-10-18T07:18:32.083Z,67.5
2022-10-18T07:19:32.998Z,73.13
2022-10-18T07:20:33.986Z,78.75
2022-10-18T07:21:33.907Z,90
2022-10-18T07:22:41.559Z,95.63
2022-10-18T07:23:36.053Z,95.63
2022-10-18T07:24:36.211Z,95.63
2022-10-18T07:25:41.602Z,123.75
2022-10-18T07:26:37.251Z,118.13
2022-10-18T07:27:38.638Z,168.75
2022-10-18T07:28:38.744Z,241.88
2022-10-18T07:29:39.261Z,140.63
2022-10-18T07:30:38.643Z,146.25
2022-10-18T07:31:39.641Z,185.63
2022-10-18T07:32:40.264Z,168.75
2022-10-18T07:33:41.231Z,180
2022-10-18T07:34:41.864Z,213.75
2022-10-18T07:35:42.387Z,208.13
2022-10-18T07:36:43.342Z,315
2022-10-18T07:37:47.762Z,320.63
2022-10-18T07:38:43.391Z,348.75
2022-10-18T07:39:44.321Z,343.13
2022-10-18T07:40:44.842Z,478.13
2022-10-18T07:41:44.486Z,393.75
2022-10-18T07:42:45.413Z,264.38
2022-10-18T07:43:46.658Z,320.63
2022-10-18T07:44:47.324Z,236.25
2022-10-18T07:45:48.266Z,180
2022-10-18T07:46:49.151Z,191.25
2022-10-18T07:47:52.685Z,213.75
2022-10-18T07:48:50.640Z,320.63
2022-10-18T07:49:50.936Z,343.13
2022-10-18T07:50:52.261Z,241.88
2022-10-18T07:51:52.479Z,213.75
2022-10-18T07:52:52.995Z,236.25
2022-10-18T07:53:52.921Z,337.5
2022-10-18T07:54:53.315Z,196.88
2022-10-18T07:55:53.906Z,191.25
2022-10-18T07:56:53.809Z,219.38
2022-10-18T07:57:54.735Z,230.63
2022-10-18T07:58:55.648Z,315
2022-10-18T07:59:56.625Z,219.38
2022-10-18T08:00:57.658Z,275.63
2022-10-18T08:01:58.300Z,618.75
2022-10-18T08:02:57.678Z,652.5
2022-10-18T08:04:01.090Z,669.38
2022-10-18T08:04:59.116Z,759.38
2022-10-18T08:05:59.950Z,1113.75
2022-10-18T08:07:00.878Z,776.25
2022-10-18T08:08:03.088Z,292.5
2022-10-18T08:09:02.271Z,528.75
2022-10-18T08:10:02.497Z,225
2022-10-18T08:11:03.139Z,185.63
2022-10-18T08:12:04.041Z,185.63
2022-10-18T08:13:04.973Z,191.25
2022-10-18T08:14:04.967Z,196.88
2022-10-18T08:15:05.909Z,196.88
2022-10-18T08:16:07.288Z,348.75
2022-10-18T08:17:07.499Z,275.63
2022-10-18T08:18:07.481Z,191.25
2022-10-18T08:19:08.572Z,213.75
2022-10-18T08:20:42.469Z,123.75
2022-10-18T08:21:09.426Z,123.75
2022-10-18T08:22:10.374Z,123.75
2022-10-18T08:23:16.450Z,123.75
2022-10-18T08:24:12.967Z,146.25
2022-10-18T08:25:13.428Z,146.25
2022-10-18T08:26:13.793Z,163.13
2022-10-18T08:27:14.783Z,129.38
2022-10-18T08:28:15.402Z,140.63
2022-10-18T08:29:42.916Z,264.38
2022-10-18T08:30:16.259Z,1102.5
2022-10-18T08:31:16.330Z,658.13
2022-10-18T08:32:16.472Z,680.63
2022-10-18T08:33:16.715Z,1220.63
2022-10-18T08:34:22.741Z,1254.38
2022-10-18T08:35:21.321Z,849.38
2022-10-18T08:36:18.475Z,911.25
2022-10-18T08:37:19.522Z,1046.25
2022-10-18T08:38:24.584Z,1113.75
2022-10-18T08:39:21.562Z,686.25
2022-10-18T08:40:22.262Z,275.63
2022-10-18T08:41:24.013Z,253.13
2022-10-18T08:42:23.715Z,230.63
2022-10-18T08:43:32.266Z,253.13
2022-10-18T08:44:25.800Z,264.38
2022-10-18T08:45:54.413Z,393.75
2022-10-18T08:46:42.871Z,286.88
2022-10-18T08:47:43.820Z,236.25
2022-10-18T08:48:44.340Z,230.63
2022-10-18T08:49:49.318Z,225
2022-10-18T08:50:45.290Z,236.25
2022-10-18T08:51:46.855Z,180
2022-10-18T08:52:47.372Z,202.5
2022-10-18T08:53:50.839Z,191.25
2022-10-18T08:54:47.270Z,191.25
2022-10-18T08:55:48.610Z,191.25
2022-10-18T08:56:48.403Z,258.75
2022-10-18T08:57:50.529Z,281.25
2022-10-18T08:58:51.122Z,230.63
2022-10-18T08:59:51.672Z,185.63
2022-10-18T09:00:51.908Z,196.88
2022-10-18T09:01:52.633Z,168.75
2022-10-18T09:02:52.956Z,180
2022-10-18T09:03:53.592Z,202.5
2022-10-18T09:04:53.495Z,191.25
2022-10-18T09:05:54.697Z,191.25
2022-10-18T09:06:55.337Z,191.25
2022-10-18T09:07:54.963Z,163.13
2022-10-18T09:08:56.212Z,163.13
2022-10-18T09:09:57.183Z,185.63
2022-10-18T09:11:59.464Z,163.13
2022-10-18T09:12:57.878Z,163.13
2022-10-18T09:13:58.096Z,146.25
2022-10-18T09:14:58.294Z,146.25
2022-10-18T09:15:58.262Z,163.13
2022-10-18T09:16:59.086Z,168.75
2022-10-18T09:17:58.993Z,174.38
2022-10-18T09:18:59.625Z,208.13
2022-10-18T09:21:00.438Z,236.25
2022-10-18T09:22:03.099Z,225
2022-10-18T09:23:02.226Z,196.88
2022-10-18T09:24:02.981Z,174.38
2022-10-18T09:25:04.600Z,180
2022-10-18T09:26:04.909Z,376.88
2022-10-18T09:27:04.955Z,360
2022-10-18T09:28:05.878Z,270
2022-10-18T09:29:06.845Z,174.38
2022-10-18T09:30:07.121Z,174.38
2022-10-18T09:31:10.606Z,163.13
2022-10-18T09:32:07.996Z,163.13
2022-10-18T09:33:08.218Z,163.13
2022-10-18T09:34:08.128Z,163.13
2022-10-18T09:35:09.051Z,180
2022-10-18T09:36:10.555Z,196.88
2022-10-18T09:37:10.862Z,225
2022-10-18T09:38:11.860Z,230.63
2022-10-18T09:39:16.495Z,225
2022-10-18T09:40:14.010Z,225
2022-10-18T09:41:12.428Z,247.5
2022-10-18T09:42:13.089Z,191.25
2022-10-18T09:43:14.299Z,185.63
2022-10-18T09:44:14.259Z,180
2022-10-18T09:45:15.478Z,180
2022-10-18T09:46:14.813Z,174.38
2022-10-18T09:47:21.437Z,174.38
2022-10-18T09:48:16.375Z,174.38
2022-10-18T09:49:21.099Z,174.38
2022-10-18T09:50:17.453Z,180
2022-10-18T09:51:18.359Z,180
2022-10-18T09:52:19.879Z,180
2022-10-18T09:53:19.821Z,174.38
2022-10-18T09:54:20.457Z,174.38
2022-10-18T09:55:21.663Z,168.75
2022-10-18T09:56:21.289Z,168.75
2022-10-18T09:57:22.465Z,174.38
2022-10-18T09:58:22.377Z,180
2022-10-18T09:59:23.305Z,174.38
2022-10-18T10:00:23.512Z,157.5
2022-10-18T10:01:23.415Z,157.5
2022-10-18T10:02:25.384Z,163.13
2022-10-18T10:03:25.341Z,163.13
2022-10-18T10:04:26.606Z,163.13
2022-10-18T10:05:27.360Z,163.13
2022-10-18T10:06:26.986Z,208.13
2022-10-18T10:07:28.742Z,180
2022-10-18T10:08:28.840Z,281.25
2022-10-18T10:09:29.801Z,258.75
2022-10-18T10:10:30.790Z,315
2022-10-18T10:11:31.293Z,343.13
2022-10-18T10:12:31.569Z,270
2022-10-18T10:13:32.506Z,286.88
2022-10-18T10:14:32.723Z,253.13
2022-10-18T10:15:42.344Z,196.88
2022-10-18T10:16:33.165Z,208.13
2022-10-18T10:17:34.436Z,286.88
2022-10-18T10:18:35.065Z,213.75
2022-10-18T10:19:35.299Z,326.25
2022-10-18T10:20:35.533Z,838.13
2022-10-18T10:21:35.465Z,230.63
2022-10-18T10:22:36.399Z,270
2022-10-18T10:23:37.055Z,315
2022-10-18T10:24:42.470Z,208.13
2022-10-18T10:25:38.411Z,202.5
2022-10-18T10:26:39.381Z,168.75
2022-10-18T10:27:40.527Z,174.38
2022-10-18T10:28:41.393Z,191.25
2022-10-18T10:30:04.276Z,258.75
2022-10-18T10:30:41.422Z,258.75
2022-10-18T10:31:42.054Z,236.25
2022-10-18T10:32:43.094Z,241.88
2022-10-18T10:33:43.291Z,270
2022-10-18T10:34:47.530Z,298.13
2022-10-18T10:36:05.615Z,247.5
2022-10-18T10:36:45.483Z,275.63
2022-10-18T10:37:46.997Z,540
2022-10-18T10:38:46.293Z,393.75
2022-10-18T10:40:00.797Z,466.88
2022-10-18T10:40:46.680Z,663.75
2022-10-18T10:41:47.095Z,759.38
2022-10-18T10:42:48.674Z,590.63
2022-10-18T10:43:54.612Z,562.5
2022-10-18T10:44:49.531Z,523.13
2022-10-18T10:45:50.466Z,613.13
2022-10-18T10:46:51.377Z,708.75
2022-10-18T10:47:53.072Z,405
2022-10-18T10:49:00.573Z,309.38
2022-10-18T10:49:57.750Z,759.38
2022-10-18T10:50:59.858Z,697.5
2022-10-18T10:52:08.664Z,776.25
2022-10-18T10:52:55.959Z,810
2022-10-18T10:53:56.196Z,714.38
2022-10-18T10:55:39.186Z,371.25
2022-10-18T10:55:55.830Z,298.13
2022-10-18T10:56:56.772Z,511.88
2022-10-18T10:57:58.131Z,315
2022-10-18T10:58:58.710Z,382.5
2022-10-18T10:59:58.682Z,849.38
2022-10-18T11:00:58.334Z,770.63
2022-10-18T11:02:00.477Z,534.38
2022-10-18T11:03:40.189Z,191.25
2022-10-18T11:04:01.435Z,180
2022-10-18T11:05:01.971Z,174.38
2022-10-18T11:06:02.318Z,196.88
2022-10-18T11:07:02.553Z,230.63
2022-10-18T11:08:03.007Z,196.88
2022-10-18T11:09:04.268Z,208.13
2022-10-18T11:10:05.542Z,427.5
2022-10-18T11:11:06.050Z,866.25
2022-10-18T11:12:05.722Z,624.38
2022-10-18T11:13:06.636Z,540
2022-10-18T11:14:37.651Z,270
2022-10-18T11:15:07.580Z,292.5
2022-10-18T11:16:08.792Z,371.25
2022-10-18T11:17:13.442Z,174.38
2022-10-18T11:18:09.429Z,421.88
2022-10-18T11:19:09.993Z,208.13
2022-10-18T11:20:09.911Z,236.25
2022-10-18T11:21:11.138Z,230.63
2022-10-18T11:22:12.367Z,219.38
2022-10-18T11:23:12.619Z,208.13
2022-10-18T11:24:13.862Z,253.13
2022-10-18T11:25:13.804Z,376.88
2022-10-18T11:26:14.490Z,433.13
2022-10-18T11:27:15.805Z,478.13
2022-10-18T11:28:16.827Z,562.5
2022-10-18T11:29:17.059Z,540
2022-10-18T11:30:17.343Z,675
2022-10-18T11:31:18.286Z,883.13
2022-10-18T11:32:18.198Z,798.75
2022-10-18T11:33:19.160Z,410.63
2022-10-18T11:34:27.265Z,393.75
2022-10-18T11:35:20.457Z,545.63
2022-10-18T11:36:20.895Z,635.63
2022-10-18T11:37:51.951Z,731.25
2022-10-18T11:38:39.975Z,708.75
2022-10-18T11:39:41.286Z,590.63
2022-10-18T11:40:40.959Z,579.38
2022-10-18T11:41:42.183Z,635.63
2022-10-18T11:42:46.205Z,590.63
2022-10-18T11:44:14.281Z,585
2022-10-18T11:44:44.497Z,630
2022-10-18T11:45:48.599Z,720
2022-10-18T11:46:45.532Z,680.63
2022-10-18T11:47:46.650Z,663.75
2022-10-18T11:48:46.945Z,523.13
2022-10-18T11:49:47.493Z,365.63
2022-10-18T11:50:47.411Z,405
2022-10-18T11:52:19.708Z,601.88
2022-10-18T11:52:48.375Z,601.88
2022-10-18T11:53:53.807Z,433.13
2022-10-18T11:54:52.620Z,399.38
2022-10-18T11:55:50.874Z,478.13
2022-10-18T11:56:50.785Z,495
2022-10-18T11:57:52.308Z,360
2022-10-18T11:58:52.643Z,348.75
2022-10-18T11:59:53.900Z,399.38
2022-10-18T12:00:54.117Z,331.88
2022-10-18T12:01:54.328Z,270
2022-10-18T12:02:54.587Z,275.63
2022-10-18T12:03:54.585Z,236.25
2022-10-18T12:05:35.547Z,343.13
2022-10-18T12:05:55.465Z,405
2022-10-18T12:06:56.411Z,405
2022-10-18T12:07:57.322Z,360
2022-10-18T12:08:57.730Z,388.13
2022-10-18T12:09:59.504Z,382.5
2022-10-18T12:11:18.064Z,343.13
2022-10-18T12:12:07.066Z,286.88
2022-10-18T12:12:59.999Z,281.25
2022-10-18T12:14:01.520Z,264.38
2022-10-18T12:15:00.896Z,253.13
2022-10-18T12:16:02.103Z,270
2022-10-18T12:17:55.772Z,286.88
2022-10-18T12:18:13.874Z,326.25
2022-10-18T12:19:14.441Z,405
2022-10-18T12:20:14.092Z,506.25
2022-10-18T12:21:14.761Z,461.25
2022-10-18T12:22:15.362Z,427.5
2022-10-18T12:23:15.001Z,455.63
2022-10-18T12:24:15.647Z,416.25
2022-10-18T12:25:16.611Z,405
2022-10-18T12:26:17.189Z,405
2022-10-18T12:27:18.705Z,405
2022-10-18T12:28:19.326Z,416.25
2022-10-18T12:29:19.648Z,405
2022-10-18T12:30:20.383Z,382.5
2022-10-18T12:31:21.318Z,382.5
2022-10-18T12:32:21.541Z,416.25
2022-10-18T12:33:43.340Z,466.88
2022-10-18T12:34:22.573Z,461.25
2022-10-18T12:35:22.220Z,455.63
2022-10-18T12:36:23.492Z,455.63
2022-10-18T12:37:23.696Z,421.88
2022-10-18T12:38:24.633Z,360
2022-10-18T12:39:44.043Z,399.38
2022-10-18T12:40:33.095Z,410.63
2022-10-18T12:41:26.751Z,331.88
2022-10-18T12:42:27.010Z,320.63
2022-10-18T12:43:27.003Z,326.25
2022-10-18T12:44:27.933Z,348.75
2022-10-18T12:45:27.860Z,365.63
2022-10-18T12:46:30.789Z,371.25
2022-10-18T12:47:30.469Z,365.63
2022-10-18T12:48:31.700Z,326.25
2022-10-18T12:49:31.421Z,298.13
2022-10-18T12:50:32.365Z,303.75
2022-10-18T12:51:33.645Z,292.5
2022-10-18T12:52:33.890Z,303.75
2022-10-18T12:53:34.085Z,298.13
2022-10-18T12:54:35.034Z,303.75
2022-10-18T12:55:35.624Z,292.5
2022-10-18T12:56:39.739Z,292.5
2022-10-18T12:57:36.126Z,298.13
2022-10-18T12:58:36.061Z,309.38
2022-10-18T12:59:36.756Z,315
2022-10-18T13:00:37.706Z,320.63
2022-10-18T13:01:39.403Z,101.25
2022-10-18T13:02:39.975Z,95.63
2022-10-18T13:03:39.892Z,95.63
2022-10-18T13:04:40.861Z,101.25
2022-10-18T13:06:11.602Z,106.88
2022-10-18T13:06:41.880Z,174.38
2022-10-18T13:07:43.074Z,298.13
2022-10-18T13:08:42.082Z,281.25
2022-10-18T13:09:42.545Z,185.63
2022-10-18T13:10:44.067Z,281.25
2022-10-18T13:11:43.849Z,270
2022-10-18T13:12:44.493Z,95.63
2022-10-18T13:13:56.299Z,118.13
2022-10-18T13:15:07.172Z,123.75
2022-10-18T13:15:51.184Z,258.75
2022-10-18T13:16:47.396Z,270
2022-10-18T13:17:48.129Z,208.13
2022-10-18T13:18:47.799Z,90
2022-10-18T13:19:58.251Z,90
2022-10-18T13:20:49.689Z,95.63
2022-10-18T13:21:49.996Z,118.13
2022-10-18T13:22:50.200Z,157.5
2022-10-18T13:23:54.844Z,185.63
2022-10-18T13:24:51.771Z,180
2022-10-18T13:25:52.441Z,106.88
2022-10-18T13:27:34.761Z,95.63
2022-10-18T13:27:55.384Z,123.75
2022-10-18T13:28:55.676Z,236.25
2022-10-18T13:29:55.961Z,281.25
2022-10-18T13:30:55.581Z,135
2022-10-18T13:31:56.525Z,135
2022-10-18T13:32:57.322Z,258.75
2022-10-18T13:33:57.767Z,253.13
2022-10-18T13:34:57.710Z,253.13
2022-10-18T13:35:58.635Z,247.5
2022-10-18T13:36:59.623Z,247.5
2022-10-18T13:37:59.824Z,247.5
2022-10-18T13:39:00.447Z,247.5
2022-10-18T13:40:01.762Z,247.5
2022-10-18T13:41:01.991Z,241.88
2022-10-18T13:42:08.824Z,174.38
2022-10-18T13:43:03.337Z,241.88
2022-10-18T13:44:06.811Z,241.88
2022-10-18T13:45:03.466Z,236.25
2022-10-18T13:46:04.404Z,236.25
2022-10-18T13:47:04.768Z,230.63